createdAt,value
2022-09-28T00:01:59.521Z,3.15
2022-09-28T00:04:26.391Z,2.83
2022-09-28T00:06:53.178Z,2.53
2022-09-28T00:09:20.140Z,2.27
2022-09-28T00:11:46.852Z,3.13
2022-09-28T00:14:13.792Z,3.23
2022-09-28T00:16:44.009Z,3.00
2022-09-28T00:19:12.373Z,3.70
2022-09-28T00:21:41.068Z,3.55
2022-09-28T00:24:13.006Z,4.05
2022-09-28T00:26:54.107Z,3.45
2022-09-28T00:29:24.278Z,3.50
2022-09-28T00:31:53.443Z,3.13
2022-09-28T00:34:20.507Z,5.00
2022-09-28T00:36:48.384Z,4.30
2022-09-28T00:39:16.641Z,5.13
2022-09-28T00:41:44.110Z,3.65
2022-09-28T00:44:25.879Z,6.18
2022-09-28T00:47:12.204Z,5.63
2022-09-28T00:49:53.905Z,5.03
2022-09-28T00:52:50.077Z,7.15
2022-09-28T00:55:21.990Z,6.70
2022-09-28T00:57:56.543Z,6.07
2022-09-28T01:00:23.786Z,6.53
2022-09-28T01:02:51.157Z,6.95
2022-09-28T01:05:18.788Z,8.35
2022-09-28T01:12:41.114Z,4.90
2022-09-28T01:15:08.550Z,8.45
2022-09-28T01:18:07.135Z,10.85
2022-09-28T01:20:43.779Z,10.85
2022-09-28T01:23:35.358Z,11.95
2022-09-28T01:26:23.876Z,10.43
2022-09-28T01:28:59.685Z,13.07
2022-09-28T01:31:32.163Z,13.95
2022-09-28T01:34:04.719Z,13.65
2022-09-28T01:36:39.350Z,13.52
2022-09-28T01:39:15.129Z,16.42
2022-09-28T01:41:43.865Z,14.60
2022-09-28T01:44:14.863Z,13.27
2022-09-28T01:46:45.309Z,5.65
2022-09-28T01:49:36.654Z,9.23
2022-09-28T01:52:27.847Z,12.95
2022-09-28T01:55:00.958Z,13.18
2022-09-28T01:57:34.511Z,15.77
2022-09-28T02:00:04.471Z,9.90
2022-09-28T02:02:59.928Z,13.07
2022-09-28T02:05:40.462Z,13.10
2022-09-28T02:08:29.499Z,12.70
2022-09-28T02:11:15.481Z,11.00
2022-09-28T02:14:05.458Z,13.20
2022-09-28T02:16:50.540Z,12.98
2022-09-28T02:19:27.326Z,11.52
2022-09-28T02:22:00.675Z,10.68
2022-09-28T02:24:40.425Z,7.47
2022-09-28T02:27:15.557Z,17.33
2022-09-28T02:29:42.364Z,13.15
2022-09-28T02:32:09.138Z,11.50
2022-09-28T02:34:36.349Z,13.13
2022-09-28T02:37:03.383Z,12.13
2022-09-28T02:39:30.377Z,12.30
2022-09-28T02:42:25.536Z,10.80
2022-09-28T02:45:10.892Z,11.93
2022-09-28T02:48:07.122Z,11.98
2022-09-28T02:50:48.477Z,12.98
2022-09-28T02:53:46.444Z,10.32
2022-09-28T02:56:28.961Z,11.40
2022-09-28T02:59:28.037Z,8.45
2022-09-28T03:02:21.117Z,9.50
2022-09-28T03:05:07.717Z,10.13
2022-09-28T03:07:40.466Z,12.93
2022-09-28T03:10:33.474Z,11.98
2022-09-28T03:13:01.507Z,11.02
2022-09-28T03:15:31.419Z,11.18
2022-09-28T03:17:58.869Z,9.80
2022-09-28T03:23:19.854Z,11.70
2022-09-28T03:25:40.795Z,12.00
2022-09-28T03:28:07.497Z,13.40
2022-09-28T03:30:39.176Z,11.30
2022-09-28T03:33:06.915Z,11.60
2022-09-28T03:35:33.809Z,11.57
2022-09-28T03:38:00.470Z,12.95
2022-09-28T03:40:29.801Z,13.43
2022-09-28T03:42:56.742Z,14.47
2022-09-28T03:45:23.451Z,14.00
2022-09-28T03:47:51.767Z,11.48
2022-09-28T03:50:19.012Z,8.40
2022-09-28T03:52:45.967Z,4.20
2022-09-28T03:55:12.672Z,1.67
2022-09-28T03:57:39.405Z,8.63
2022-09-28T04:00:07.904Z,11.30
2022-09-28T04:02:40.403Z,10.63
2022-09-28T04:05:07.597Z,9.95
2022-09-28T04:07:34.300Z,11.63
2022-09-28T04:10:01.555Z,11.18
2022-09-28T04:12:28.274Z,9.60
2022-09-28T04:14:55.567Z,10.25
2022-09-28T04:17:22.266Z,10.77
2022-09-28T04:19:49.300Z,12.65
2022-09-28T04:22:51.402Z,7.18
2022-09-28T04:25:18.396Z,12.48
2022-09-28T04:28:03.742Z,13.63
2022-09-28T04:30:31.028Z,11.13
2022-09-28T04:32:57.942Z,15.30
2022-09-28T04:35:28.923Z,13.20
2022-09-28T04:37:55.663Z,14.20
2022-09-28T04:40:22.462Z,12.97
2022-09-28T04:42:56.699Z,12.98
2022-09-28T04:45:27.885Z,10.27
2022-09-28T04:48:00.486Z,14.70
2022-09-28T04:50:56.554Z,14.75
2022-09-28T04:56:08.227Z,14.65
2022-09-28T04:58:36.337Z,14.07
2022-09-28T05:01:09.386Z,15.50
2022-09-28T05:03:54.775Z,8.80
2022-09-28T05:06:33.274Z,16.98
2022-09-28T05:09:06.263Z,13.55
2022-09-28T05:11:33.393Z,14.45
2022-09-28T05:14:00.560Z,15.15
2022-09-28T05:16:28.448Z,13.85
2022-09-28T05:19:34.865Z,13.95
2022-09-28T05:22:04.657Z,12.50
2022-09-28T05:24:37.183Z,13.13
2022-09-28T05:27:04.073Z,7.33
2022-09-28T05:29:32.500Z,14.10
2022-09-28T05:32:32.017Z,13.65
2022-09-28T05:35:11.202Z,12.95
2022-09-28T05:37:45.384Z,14.23
2022-09-28T05:40:12.464Z,15.27
2022-09-28T05:42:40.546Z,12.80
2022-09-28T05:45:08.430Z,14.65
2022-09-28T05:47:42.255Z,12.68
2022-09-28T05:50:15.832Z,9.98
2022-09-28T05:52:43.730Z,12.93
2022-09-28T05:55:10.919Z,13.27
2022-09-28T05:57:37.775Z,11.90
2022-09-28T06:00:08.845Z,13.02
2022-09-28T06:02:56.019Z,12.13
2022-09-28T06:05:23.335Z,13.52
2022-09-28T06:07:50.099Z,11.45
2022-09-28T06:10:16.838Z,13.45
2022-09-28T06:12:43.642Z,13.18
2022-09-28T06:15:15.422Z,11.85
2022-09-28T06:17:43.761Z,12.27
2022-09-28T06:20:43.139Z,12.93
2022-09-28T06:23:14.925Z,10.82
2022-09-28T06:25:41.951Z,12.00
2022-09-28T06:28:14.096Z,13.43
2022-09-28T06:30:42.260Z,12.45
2022-09-28T06:33:13.723Z,12.55
2022-09-28T06:35:40.944Z,14.52
2022-09-28T06:38:08.286Z,14.93
2022-09-28T06:40:36.104Z,13.25
2022-09-28T06:43:10.102Z,14.75
2022-09-28T06:45:55.649Z,15.55
2022-09-28T06:48:26.125Z,12.50
2022-09-28T06:50:52.863Z,13.82
2022-09-28T06:53:28.884Z,17.15
2022-09-28T06:56:15.855Z,18.67
2022-09-28T06:58:42.536Z,21.95
2022-09-28T07:01:09.374Z,18.80
2022-09-28T07:03:45.446Z,17.80
2022-09-28T07:06:47.991Z,19.55
2022-09-28T07:09:40.294Z,14.52
2022-09-28T07:12:15.161Z,17.02
2022-09-28T07:15:09.046Z,21.90
2022-09-28T07:20:19.669Z,20.63
2022-09-28T07:22:53.571Z,18.98
2022-09-28T07:25:21.903Z,18.05
2022-09-28T07:28:06.372Z,22.50
2022-09-28T07:31:03.296Z,17.40
2022-09-28T07:33:53.722Z,20.33
2022-09-28T07:36:43.638Z,21.77
2022-09-28T07:39:12.089Z,20.55
2022-09-28T07:41:39.815Z,19.33
2022-09-28T07:44:10.494Z,21.80
2022-09-28T07:46:39.328Z,15.15
2022-09-28T07:49:12.663Z,18.73
2022-09-28T07:51:54.459Z,15.52
2022-09-28T07:54:39.349Z,17.33
2022-09-28T07:57:24.947Z,7.65
2022-09-28T08:00:13.648Z,17.40
2022-09-28T08:02:47.716Z,17.35
2022-09-28T08:05:21.041Z,14.15
2022-09-28T08:07:47.911Z,13.23
2022-09-28T08:10:14.982Z,14.75
2022-09-28T08:13:02.967Z,16.08
2022-09-28T08:15:51.752Z,13.77
2022-09-28T08:18:35.553Z,14.68
2022-09-28T08:21:22.359Z,17.15
2022-09-28T08:23:49.472Z,16.95
2022-09-28T08:26:16.453Z,15.80
2022-09-28T08:28:46.614Z,7.70
2022-09-28T08:31:31.787Z,16.13
2022-09-28T08:34:22.407Z,13.65
2022-09-28T08:37:18.632Z,14.75
2022-09-28T08:40:04.545Z,11.65
2022-09-28T08:42:52.007Z,13.07
2022-09-28T08:45:39.071Z,10.52
2022-09-28T08:48:51.843Z,13.50
2022-09-28T08:51:55.898Z,14.48
2022-09-28T08:54:51.658Z,16.48
2022-09-28T08:57:51.013Z,15.95
2022-09-28T09:00:21.811Z,14.57
2022-09-28T09:02:49.271Z,13.77
2022-09-28T09:05:23.899Z,9.48
2022-09-28T09:08:19.647Z,14.30
2022-09-28T09:11:10.516Z,11.80
2022-09-28T09:14:16.219Z,9.15
2022-09-28T09:17:07.321Z,11.82
2022-09-28T09:20:04.365Z,14.60
2022-09-28T09:22:59.635Z,14.98
2022-09-28T09:25:54.786Z,15.88
2022-09-28T09:28:48.173Z,15.60
2022-09-28T09:31:26.455Z,14.93
2022-09-28T09:34:36.352Z,15.85
2022-09-28T09:37:57.776Z,15.98
2022-09-28T09:41:29.339Z,15.55
2022-09-28T09:44:44.830Z,16.98
2022-09-28T09:47:56.225Z,16.65
2022-09-28T09:50:40.944Z,15.52
2022-09-28T09:53:25.427Z,13.50
2022-09-28T09:56:15.314Z,8.50
2022-09-28T09:59:26.121Z,10.07
2022-09-28T10:02:23.958Z,15.45
2022-09-28T10:05:11.522Z,10.48
2022-09-28T10:07:58.759Z,13.95
2022-09-28T10:10:37.154Z,9.95
2022-09-28T10:13:09.398Z,13.13
2022-09-28T10:15:40.368Z,10.18
2022-09-28T10:18:30.049Z,10.68
2022-09-28T10:21:37.406Z,11.00
2022-09-28T10:24:19.723Z,10.73
2022-09-28T10:26:49.689Z,9.30
2022-09-28T10:29:22.717Z,11.90
2022-09-28T10:31:51.919Z,9.60
2022-09-28T10:34:29.953Z,10.80
2022-09-28T10:37:08.842Z,9.88
2022-09-28T10:39:55.895Z,6.68
2022-09-28T10:42:31.082Z,9.68
2022-09-28T10:45:04.514Z,9.52
2022-09-28T10:47:35.581Z,10.13
2022-09-28T10:50:26.251Z,9.93
2022-09-28T10:53:17.331Z,2.80
2022-09-28T10:56:05.505Z,7.93
2022-09-28T10:58:40.341Z,7.10
2022-09-28T11:01:24.168Z,7.70
2022-09-28T11:03:54.544Z,6.15
2022-09-28T11:06:31.974Z,8.18
2022-09-28T11:09:20.987Z,10.13
2022-09-28T11:11:48.147Z,9.43
2022-09-28T11:14:43.563Z,8.98
2022-09-28T11:17:41.888Z,6.13
2022-09-28T11:20:28.008Z,9.23
2022-09-28T11:23:15.903Z,6.65
2022-09-28T11:25:42.944Z,7.07
2022-09-28T11:28:21.881Z,7.35
2022-09-28T11:30:53.518Z,8.27
2022-09-28T11:33:41.277Z,7.50
2022-09-28T11:36:38.404Z,8.52
2022-09-28T11:39:16.310Z,10.43
2022-09-28T11:41:58.477Z,8.35
2022-09-28T11:44:37.835Z,8.40
2022-09-28T11:47:27.207Z,7.88
2022-09-28T11:50:02.476Z,7.57
2022-09-28T11:52:52.281Z,8.95
2022-09-28T11:55:25.952Z,9.02
2022-09-28T11:58:17.343Z,8.32
2022-09-28T12:00:49.536Z,10.88
2022-09-28T12:03:28.755Z,11.80
2022-09-28T12:06:00.821Z,6.80
2022-09-28T12:08:30.067Z,9.18
2022-09-28T12:11:39.174Z,8.43
2022-09-28T12:14:27.258Z,9.25
2022-09-28T12:17:07.670Z,6.45
2022-09-28T12:19:42.508Z,9.48
2022-09-28T12:22:39.450Z,6.80
2022-09-28T12:25:12.575Z,8.55
2022-09-28T12:27:57.562Z,9.25
2022-09-28T12:30:25.641Z,7.22
2022-09-28T12:33:13.023Z,10.30
2022-09-28T12:36:06.063Z,7.90
2022-09-28T12:39:21.783Z,7.90
2022-09-28T12:42:15.050Z,7.10
2022-09-28T12:45:03.037Z,5.70
2022-09-28T12:47:49.457Z,3.08
2022-09-28T12:50:39.374Z,5.57
2022-09-28T12:53:29.578Z,5.35
2022-09-28T12:56:23.165Z,4.40
2022-09-28T12:59:18.763Z,4.90
2022-09-28T13:01:51.356Z,5.35
2022-09-28T13:04:40.355Z,5.60
2022-09-28T13:07:18.556Z,5.05
2022-09-28T13:10:26.026Z,5.55
2022-09-28T13:13:20.037Z,5.82
2022-09-28T13:16:05.759Z,4.88
2022-09-28T13:18:46.108Z,4.18
2022-09-28T13:21:26.307Z,4.53
2022-09-28T13:24:14.489Z,5.30
2022-09-28T13:26:47.020Z,3.88
2022-09-28T13:29:17.300Z,4.25
2022-09-28T13:31:53.948Z,5.07
2022-09-28T13:34:33.317Z,3.78
2022-09-28T13:37:19.771Z,4.45
2022-09-28T13:39:50.858Z,4.05
2022-09-28T13:42:45.756Z,3.75
2022-09-28T13:45:21.983Z,4.95
2022-09-28T13:47:51.666Z,4.35
2022-09-28T13:50:27.634Z,5.05
2022-09-28T13:53:11.297Z,5.28
2022-09-28T13:55:58.834Z,4.72
2022-09-28T13:58:42.190Z,4.20
2022-09-28T14:01:16.060Z,3.00
2022-09-28T14:04:15.626Z,3.70
2022-09-28T14:06:57.433Z,3.75
2022-09-28T14:09:40.892Z,4.47
2022-09-28T14:12:44.587Z,4.85
2022-09-28T14:15:45.210Z,4.72
2022-09-28T14:18:19.003Z,5.43
2022-09-28T14:21:14.628Z,5.57
2022-09-28T14:23:47.590Z,6.70
2022-09-28T14:26:17.064Z,7.40
2022-09-28T14:28:57.269Z,5.90
2022-09-28T14:31:29.003Z,5.70
2022-09-28T14:33:58.439Z,6.28
2022-09-28T14:36:49.526Z,6.47
2022-09-28T14:39:49.813Z,6.18
2022-09-28T14:42:20.566Z,6.80
2022-09-28T14:45:06.186Z,6.88
2022-09-28T14:47:44.962Z,6.50
2022-09-28T14:50:25.083Z,5.95
2022-09-28T14:53:14.024Z,5.97
2022-09-28T14:55:50.770Z,7.18
2022-09-28T14:58:23.792Z,4.75
2022-09-28T15:00:56.180Z,6.85
2022-09-28T15:03:23.973Z,6.22
2022-09-28T15:05:50.742Z,5.30
2022-09-28T15:08:20.852Z,7.53
2022-09-28T15:10:50.111Z,5.25
2022-09-28T15:13:34.632Z,6.93
2022-09-28T15:16:10.278Z,7.50
2022-09-28T15:18:57.467Z,5.97
2022-09-28T15:21:33.387Z,6.43
2022-09-28T15:24:00.398Z,6.75
2022-09-28T15:26:32.883Z,7.32
2022-09-28T15:29:03.195Z,6.30
2022-09-28T15:31:35.562Z,6.55
2022-09-28T15:34:20.800Z,6.32
2022-09-28T15:36:47.772Z,6.47
2022-09-28T15:39:21.639Z,6.35
2022-09-28T15:41:50.644Z,5.22
2022-09-28T15:44:32.210Z,6.85
2022-09-28T15:47:14.082Z,4.82
2022-09-28T15:49:43.486Z,6.57
2022-09-28T15:52:36.912Z,7.15
2022-09-28T15:55:25.541Z,7.50
2022-09-28T15:58:05.881Z,7.70
2022-09-28T16:00:32.875Z,7.85
2022-09-28T16:03:05.298Z,8.70
2022-09-28T16:05:52.206Z,8.27
2022-09-28T16:08:43.455Z,8.02
2022-09-28T16:11:27.855Z,8.75
2022-09-28T16:14:06.255Z,8.10
2022-09-28T16:16:42.206Z,8.20
2022-09-28T16:19:31.914Z,8.18
2022-09-28T16:22:02.431Z,9.07
2022-09-28T16:24:38.322Z,8.32
2022-09-28T16:27:40.940Z,8.80
2022-09-28T16:30:24.798Z,8.63
2022-09-28T16:33:01.223Z,9.00
2022-09-28T16:35:48.656Z,10.18
2022-09-28T16:38:17.626Z,9.40
2022-09-28T16:40:54.755Z,8.63
2022-09-28T16:43:28.245Z,7.80
2022-09-28T16:46:09.059Z,8.70
2022-09-28T16:48:48.484Z,9.63
2022-09-28T16:51:19.686Z,9.70
2022-09-28T16:54:05.511Z,9.85
2022-09-28T16:56:34.054Z,9.57
2022-09-28T16:59:02.113Z,11.05
2022-09-28T17:01:31.759Z,11.05
2022-09-28T17:03:58.645Z,11.05
2022-09-28T17:06:26.637Z,9.57
2022-09-28T17:08:56.529Z,9.45
2022-09-28T17:11:24.871Z,10.68
2022-09-28T17:13:58.698Z,10.60
2022-09-28T17:16:57.303Z,10.00
2022-09-28T17:19:23.576Z,9.27
2022-09-28T17:21:51.891Z,9.40
2022-09-28T17:24:19.690Z,9.98
2022-09-28T17:26:49.341Z,8.93
2022-09-28T17:29:16.122Z,9.38
2022-09-28T17:31:45.020Z,9.60
2022-09-28T17:34:15.106Z,9.40
2022-09-28T17:36:43.106Z,8.82
2022-09-28T17:39:17.549Z,9.90
2022-09-28T17:41:44.637Z,8.48
2022-09-28T17:44:14.548Z,9.52
2022-09-28T17:46:49.276Z,10.60
2022-09-28T17:49:16.806Z,10.05
2022-09-28T17:51:43.545Z,10.20
2022-09-28T17:54:10.764Z,10.10
2022-09-28T17:56:37.629Z,9.60
2022-09-28T17:59:12.723Z,9.73
2022-09-28T18:01:40.291Z,8.93
2022-09-28T18:04:09.099Z,9.55
2022-09-28T18:06:37.479Z,8.90
2022-09-28T18:09:05.070Z,9.65
2022-09-28T18:11:32.920Z,9.27
2022-09-28T18:13:59.663Z,10.52
2022-09-28T18:16:28.463Z,11.27
2022-09-28T18:18:55.418Z,12.50
2022-09-28T18:21:22.369Z,11.93
2022-09-28T18:23:49.182Z,10.85
2022-09-28T18:26:18.884Z,10.77
2022-09-28T18:28:46.643Z,9.50
2022-09-28T18:31:15.006Z,9.82
2022-09-28T18:33:41.831Z,9.90
2022-09-28T18:36:08.721Z,8.90
2022-09-28T18:38:36.251Z,8.43
2022-09-28T18:41:10.865Z,8.90
2022-09-28T18:43:37.791Z,8.70
2022-09-28T18:46:09.453Z,7.65
2022-09-28T18:48:37.597Z,6.50
2022-09-28T18:51:08.611Z,7.32
2022-09-28T18:53:39.803Z,7.40
2022-09-28T18:56:12.883Z,6.38
2022-09-28T18:58:41.503Z,6.07
2022-09-28T19:04:01.142Z,5.65
2022-09-28T19:06:28.668Z,5.40
2022-09-28T19:11:23.557Z,5.72
2022-09-28T19:16:20.541Z,5.35
2022-09-28T19:18:48.640Z,4.93
2022-09-28T19:21:15.803Z,4.90
2022-09-28T19:23:49.010Z,5.55
2022-09-28T19:26:20.385Z,5.50
2022-09-28T19:28:48.378Z,4.78
2022-09-28T19:31:16.059Z,5.25
2022-09-28T19:36:14.219Z,4.57
2022-09-28T19:38:41.236Z,6.82
2022-09-28T19:41:12.919Z,6.97
2022-09-28T19:43:43.735Z,6.03
2022-09-28T19:46:10.678Z,4.55
2022-09-28T19:48:37.493Z,4.38
2022-09-28T19:51:06.121Z,5.10
2022-09-28T19:53:36.865Z,3.97
2022-09-28T19:56:05.520Z,4.85
2022-09-28T19:58:35.443Z,4.20
2022-09-28T20:01:07.071Z,5.07
2022-09-28T20:03:34.706Z,5.00
2022-09-28T20:06:02.324Z,5.38
2022-09-28T20:10:59.758Z,4.93
2022-09-28T20:16:05.453Z,4.80
2022-09-28T20:18:38.042Z,4.82
2022-09-28T20:21:10.615Z,5.07
2022-09-28T20:23:37.531Z,5.30
2022-09-28T20:26:06.185Z,5.65
2022-09-28T20:28:33.279Z,5.63
2022-09-28T20:31:09.679Z,5.60
2022-09-28T20:33:36.786Z,3.95
2022-09-28T20:36:17.994Z,5.07
2022-09-28T20:38:48.233Z,4.50
2022-09-28T20:41:17.860Z,4.90
2022-09-28T20:43:46.517Z,4.22
2022-09-28T20:46:14.216Z,4.75
2022-09-28T20:51:12.051Z,5.50
2022-09-28T20:53:40.180Z,4.78
2022-09-28T20:56:17.581Z,4.78
2022-09-28T20:58:44.283Z,4.57
2022-09-28T21:01:16.850Z,5.55
2022-09-28T21:03:54.862Z,5.07
2022-09-28T21:06:24.098Z,5.25
2022-09-28T21:08:51.027Z,4.45
2022-09-28T21:11:20.625Z,5.93
2022-09-28T21:13:48.122Z,4.88
2022-09-28T21:16:16.241Z,5.65
2022-09-28T21:18:42.909Z,5.53
2022-09-28T21:21:14.728Z,5.45
2022-09-28T21:23:44.804Z,5.10
2022-09-28T21:26:18.754Z,5.30
2022-09-28T21:28:45.954Z,6.15
2022-09-28T21:31:14.119Z,5.35
2022-09-28T21:33:40.848Z,5.90
2022-09-28T21:36:08.170Z,5.30
2022-09-28T21:38:35.015Z,6.03
2022-09-28T21:41:02.195Z,6.07
2022-09-28T21:43:31.139Z,5.53
2022-09-28T21:45:58.345Z,6.43
2022-09-28T21:48:27.003Z,5.68
2022-09-28T21:51:08.523Z,6.20
2022-09-28T21:53:37.212Z,5.35
2022-09-28T21:56:06.518Z,6.00
2022-09-28T21:58:34.670Z,6.35
2022-09-28T22:01:08.646Z,6.15
2022-09-28T22:03:36.586Z,6.15
2022-09-28T22:06:04.753Z,6.55
2022-09-28T22:08:32.058Z,6.40
2022-09-28T22:11:03.321Z,5.90
2022-09-28T22:13:32.604Z,6.70
2022-09-28T22:16:00.104Z,6.50
2022-09-28T22:18:28.927Z,6.70
2022-09-28T22:21:02.734Z,5.97
2022-09-28T22:23:30.415Z,6.57
2022-09-28T22:26:02.357Z,7.05
2022-09-28T22:28:29.428Z,7.10
2022-09-28T22:30:57.104Z,7.30
2022-09-28T22:33:24.790Z,7.50
2022-09-28T22:35:51.846Z,8.43
2022-09-28T22:38:20.073Z,8.20
2022-09-28T22:40:51.880Z,7.00
2022-09-28T22:43:19.079Z,6.72
2022-09-28T22:45:45.937Z,7.50
2022-09-28T22:48:13.125Z,6.95
2022-09-28T22:50:47.307Z,7.03
2022-09-28T22:53:14.997Z,6.85
2022-09-28T22:55:41.933Z,7.00
2022-09-28T22:58:08.707Z,7.13
2022-09-28T23:00:36.062Z,7.67
2022-09-28T23:03:02.911Z,7.35
2022-09-28T23:05:29.694Z,6.93
2022-09-28T23:07:56.599Z,7.57
2022-09-28T23:10:24.274Z,8.18
2022-09-28T23:15:21.448Z,6.85
2022-09-28T23:17:54.747Z,7.25
2022-09-28T23:20:22.185Z,7.47
2022-09-28T23:22:49.555Z,7.38
2022-09-28T23:25:17.665Z,8.23
2022-09-28T23:27:48.443Z,6.68
2022-09-28T23:30:17.478Z,7.38
2022-09-28T23:32:44.490Z,8.30
2022-09-28T23:35:11.544Z,7.20
2022-09-28T23:37:38.309Z,7.35
2022-09-28T23:40:06.406Z,6.57
2022-09-28T23:42:34.875Z,6.90
2022-09-28T23:45:01.693Z,7.32
2022-09-28T23:47:28.415Z,7.73
2022-09-28T23:49:55.214Z,8.17
2022-09-28T23:52:21.914Z,7.13
2022-09-28T23:54:48.603Z,7.25
2022-09-28T23:57:15.466Z,7.07
2022-09-28T23:59:42.244Z,5.97
